createdAt,value
2019-01-27T00:01:24.636Z,99.90
2019-01-27T00:03:55.360Z,99.90
2019-01-27T00:06:24.498Z,99.90
2019-01-27T00:08:53.717Z,99.90
2019-01-27T00:11:23.043Z,99.90
2019-01-27T00:13:52.162Z,99.90
2019-01-27T00:16:21.323Z,99.90
2019-01-27T00:18:50.467Z,99.90
2019-01-27T00:21:19.628Z,99.90
2019-01-27T00:23:48.753Z,99.90
2019-01-27T00:26:17.917Z,99.90
2019-01-27T00:28:47.035Z,99.90
2019-01-27T00:31:16.163Z,99.90
2019-01-27T00:33:45.311Z,99.90
2019-01-27T00:36:14.472Z,99.90
2019-01-27T00:38:43.603Z,99.90
2019-01-27T00:41:12.735Z,99.90
2019-01-27T00:43:41.872Z,99.90
2019-01-27T00:46:10.982Z,99.90
2019-01-27T00:48:40.138Z,99.90
2019-01-27T00:51:09.310Z,99.90
2019-01-27T00:53:38.441Z,99.90
2019-01-27T00:56:07.551Z,99.90
2019-01-27T00:58:36.794Z,99.90
2019-01-27T01:01:06.088Z,99.90
2019-01-27T01:03:35.288Z,99.90
2019-01-27T01:06:04.786Z,99.90
2019-01-27T01:08:33.896Z,99.90
2019-01-27T01:11:03.033Z,99.90
2019-01-27T01:13:32.176Z,99.90
2019-01-27T01:16:01.314Z,99.90
2019-01-27T01:18:30.513Z,99.90
2019-01-27T01:20:59.664Z,99.90
2019-01-27T01:23:28.862Z,99.90
2019-01-27T01:25:57.959Z,99.90
2019-01-27T01:28:27.105Z,99.90
2019-01-27T01:30:56.230Z,99.90
2019-01-27T01:33:25.388Z,99.90
2019-01-27T01:35:54.509Z,99.90
2019-01-27T01:38:23.759Z,99.90
2019-01-27T01:40:52.880Z,99.90
2019-01-27T01:43:22.115Z,99.90
2019-01-27T01:45:51.224Z,99.90
2019-01-27T01:48:20.356Z,99.90
2019-01-27T01:50:49.597Z,99.90
2019-01-27T01:53:18.768Z,99.90
2019-01-27T01:55:47.911Z,99.90
2019-01-27T01:58:17.019Z,99.90
2019-01-27T02:00:46.157Z,99.90
2019-01-27T02:03:15.410Z,99.90
2019-01-27T02:05:44.543Z,99.90
2019-01-27T02:08:13.655Z,99.90
2019-01-27T02:10:42.815Z,99.90
2019-01-27T02:13:11.923Z,99.90
2019-01-27T02:16:02.328Z,99.90
2019-01-27T02:18:31.739Z,99.90
2019-01-27T02:21:00.892Z,99.90
2019-01-27T02:23:30.059Z,99.90
2019-01-27T02:25:59.244Z,99.90
2019-01-27T02:28:28.379Z,99.90
2019-01-27T02:30:57.487Z,99.90
2019-01-27T02:33:26.632Z,99.90
2019-01-27T02:35:55.831Z,99.90
2019-01-27T02:38:24.969Z,99.90
2019-01-27T02:40:54.174Z,99.90
2019-01-27T02:43:23.286Z,99.90
2019-01-27T02:45:52.423Z,99.90
2019-01-27T02:48:21.634Z,99.90
2019-01-27T02:50:50.764Z,99.90
2019-01-27T02:53:19.889Z,99.90
2019-01-27T02:55:49.084Z,99.90
2019-01-27T02:58:18.180Z,99.90
2019-01-27T03:00:47.345Z,99.90
2019-01-27T03:03:16.469Z,99.90
2019-01-27T03:06:03.283Z,99.90
2019-01-27T03:08:39.512Z,99.90
2019-01-27T03:11:08.720Z,99.90
2019-01-27T03:13:37.839Z,99.90
2019-01-27T03:16:06.973Z,99.90
2019-01-27T03:18:36.201Z,99.90
2019-01-27T03:21:05.433Z,99.90
2019-01-27T03:23:34.691Z,99.90
2019-01-27T03:26:03.810Z,99.90
2019-01-27T03:28:33.044Z,99.90
2019-01-27T03:31:02.158Z,99.90
2019-01-27T03:33:31.349Z,99.90
2019-01-27T03:36:00.475Z,99.90
2019-01-27T03:38:29.572Z,99.90
2019-01-27T03:40:58.702Z,99.90
2019-01-27T03:43:27.879Z,99.90
2019-01-27T03:45:57.026Z,99.90
2019-01-27T03:48:26.234Z,99.90
2019-01-27T03:50:55.448Z,99.90
2019-01-27T03:53:24.572Z,99.90
2019-01-27T03:55:53.731Z,99.90
2019-01-27T03:58:22.861Z,99.90
2019-01-27T04:00:52.013Z,99.90
2019-01-27T04:03:21.175Z,99.90
2019-01-27T04:05:50.271Z,99.90
2019-01-27T04:08:19.425Z,99.90
2019-01-27T04:10:48.539Z,99.90
2019-01-27T04:13:17.657Z,99.90
2019-01-27T04:15:46.784Z,99.90
2019-01-27T04:18:15.905Z,99.90
2019-01-27T04:20:45.045Z,99.90
2019-01-27T04:23:14.276Z,99.90
2019-01-27T04:25:44.039Z,99.90
2019-01-27T04:28:13.183Z,99.90
2019-01-27T04:30:42.307Z,99.90
2019-01-27T04:33:11.439Z,99.90
2019-01-27T04:35:41.744Z,99.90
2019-01-27T04:38:10.872Z,99.90
2019-01-27T04:40:40.069Z,99.90
2019-01-27T04:43:09.249Z,99.90
2019-01-27T04:45:39.153Z,99.90
2019-01-27T04:48:09.088Z,99.90
2019-01-27T04:50:38.242Z,99.90
2019-01-27T04:53:07.453Z,99.90
2019-01-27T04:55:36.651Z,99.90
2019-01-27T04:58:06.360Z,99.90
2019-01-27T05:00:35.530Z,99.90
2019-01-27T05:03:22.593Z,99.90
2019-01-27T05:05:51.691Z,99.90
2019-01-27T05:08:20.845Z,99.90
2019-01-27T05:10:50.006Z,99.90
2019-01-27T05:13:19.199Z,99.90
2019-01-27T05:15:48.309Z,99.90
2019-01-27T05:18:17.435Z,99.90
2019-01-27T05:20:46.624Z,99.90
2019-01-27T05:23:15.827Z,99.90
2019-01-27T05:25:45.045Z,99.90
2019-01-27T05:28:14.185Z,99.90
2019-01-27T05:30:43.372Z,99.90
2019-01-27T05:33:12.535Z,99.90
2019-01-27T05:35:41.676Z,99.90
2019-01-27T05:38:10.841Z,99.90
2019-01-27T05:40:40.043Z,99.90
2019-01-27T05:43:09.157Z,99.90
2019-01-27T05:45:38.375Z,99.90
2019-01-27T05:48:07.486Z,99.90
2019-01-27T05:50:36.597Z,99.90
2019-01-27T05:53:05.739Z,99.90
2019-01-27T05:55:34.915Z,99.90
2019-01-27T05:58:04.029Z,99.90
2019-01-27T06:00:42.324Z,99.90
2019-01-27T06:03:11.450Z,99.90
2019-01-27T06:05:40.575Z,99.90
2019-01-27T06:08:09.801Z,99.90
2019-01-27T06:10:38.977Z,99.90
2019-01-27T06:13:08.104Z,99.90
2019-01-27T06:15:37.224Z,99.90
2019-01-27T06:18:06.392Z,99.90
2019-01-27T06:20:35.552Z,99.90
2019-01-27T06:23:04.745Z,99.90
2019-01-27T06:25:33.951Z,99.90
2019-01-27T06:28:03.065Z,99.90
2019-01-27T06:30:32.180Z,99.90
2019-01-27T06:33:19.143Z,99.90
2019-01-27T06:35:48.307Z,99.90
2019-01-27T06:38:17.467Z,99.90
2019-01-27T06:40:46.603Z,99.90
2019-01-27T06:43:15.737Z,99.90
2019-01-27T06:45:44.866Z,99.90
2019-01-27T06:48:15.489Z,99.90
2019-01-27T06:50:44.652Z,99.90
2019-01-27T06:53:13.834Z,99.90
2019-01-27T06:55:42.978Z,99.90
2019-01-27T06:58:12.147Z,99.90
2019-01-27T07:01:00.340Z,99.90
2019-01-27T07:03:33.156Z,99.90
2019-01-27T07:06:27.368Z,99.90
2019-01-27T07:09:10.783Z,99.90
2019-01-27T07:12:02.625Z,99.90
2019-01-27T07:14:50.834Z,99.90
2019-01-27T07:17:40.807Z,99.90
2019-01-27T07:20:29.562Z,99.90
2019-01-27T07:23:23.612Z,99.90
2019-01-27T07:26:10.390Z,99.90
2019-01-27T07:28:45.812Z,99.90
2019-01-27T07:31:32.710Z,99.90
2019-01-27T07:34:29.849Z,99.90
2019-01-27T07:37:07.146Z,99.90
2019-01-27T07:40:04.111Z,99.90
2019-01-27T07:42:47.853Z,99.90
2019-01-27T07:45:36.020Z,99.90
2019-01-27T07:48:42.685Z,99.90
2019-01-27T07:51:23.934Z,99.90
2019-01-27T07:54:11.298Z,99.90
2019-01-27T07:56:57.781Z,99.90
2019-01-27T07:59:44.971Z,99.90
2019-01-27T08:02:22.932Z,99.90
2019-01-27T08:05:15.363Z,99.90
2019-01-27T08:07:55.020Z,99.90
2019-01-27T08:10:49.124Z,99.90
2019-01-27T08:13:46.190Z,99.90
2019-01-27T08:16:33.225Z,99.90
2019-01-27T08:19:36.526Z,99.90
2019-01-27T08:22:23.589Z,99.90
2019-01-27T08:25:17.914Z,99.90
2019-01-27T08:28:18.122Z,99.90
2019-01-27T08:31:13.612Z,99.90
2019-01-27T08:34:17.068Z,99.90
2019-01-27T08:37:02.269Z,99.90
2019-01-27T08:39:39.576Z,99.90
2019-01-27T08:42:46.093Z,99.90
2019-01-27T08:45:36.977Z,99.90
2019-01-27T08:48:06.183Z,96.90
2019-01-27T08:50:36.411Z,86.50
2019-01-27T08:53:05.532Z,85.50
2019-01-27T08:55:34.660Z,76.10
2019-01-27T08:58:03.780Z,79.10
2019-01-27T09:00:36.199Z,69.70
2019-01-27T09:03:12.031Z,71.30
2019-01-27T09:06:01.932Z,77.00
2019-01-27T09:08:54.712Z,70.50
2019-01-27T09:11:49.039Z,64.90
2019-01-27T09:14:37.143Z,62.90
2019-01-27T09:17:23.916Z,67.40
2019-01-27T09:20:01.398Z,60.40
2019-01-27T09:22:55.544Z,65.30
2019-01-27T09:25:41.618Z,64.90
2019-01-27T09:28:19.291Z,61.20
2019-01-27T09:31:03.839Z,58.10
2019-01-27T09:33:51.930Z,52.80
2019-01-27T09:36:46.115Z,53.30
2019-01-27T09:39:31.876Z,52.70
2019-01-27T09:42:32.183Z,51.90
2019-01-27T09:45:07.247Z,51.50
2019-01-27T09:47:45.415Z,53.50
2019-01-27T09:50:32.428Z,54.50
2019-01-27T09:53:22.326Z,54.10
2019-01-27T09:56:13.501Z,51.00
2019-01-27T09:59:07.418Z,53.70
2019-01-27T10:01:43.687Z,54.70
2019-01-27T10:04:37.571Z,56.40
2019-01-27T10:07:23.970Z,55.00
2019-01-27T10:10:20.841Z,58.20
2019-01-27T10:13:17.912Z,58.90
2019-01-27T10:16:13.164Z,59.90
2019-01-27T10:19:07.473Z,60.20
2019-01-27T10:22:10.990Z,61.20
2019-01-27T10:25:16.092Z,60.40
2019-01-27T10:28:12.977Z,62.30
2019-01-27T10:30:58.851Z,63.40
2019-01-27T10:33:43.617Z,63.90
2019-01-27T10:36:24.279Z,63.30
2019-01-27T10:38:59.280Z,63.60
2019-01-27T10:41:47.360Z,64.80
2019-01-27T10:44:24.313Z,65.20
2019-01-27T10:47:04.695Z,67.80
2019-01-27T10:49:55.747Z,68.70
2019-01-27T10:52:37.192Z,67.60
2019-01-27T10:55:33.093Z,68.40
2019-01-27T10:58:20.323Z,66.20
2019-01-27T11:00:58.522Z,66.40
2019-01-27T11:03:49.683Z,67.60
2019-01-27T11:06:29.476Z,66.30
2019-01-27T11:09:26.983Z,65.80
2019-01-27T11:12:15.076Z,62.70
2019-01-27T11:14:55.396Z,65.60
2019-01-27T11:17:49.511Z,58.10
2019-01-27T11:20:32.053Z,55.10
2019-01-27T11:23:19.136Z,52.30
2019-01-27T11:26:01.898Z,51.60
2019-01-27T11:28:39.347Z,49.50
2019-01-27T11:31:18.200Z,47.50
2019-01-27T11:34:10.104Z,47.50
2019-01-27T11:36:58.176Z,48.00
2019-01-27T11:39:47.003Z,44.70
2019-01-27T11:42:38.320Z,45.40
2019-01-27T11:45:34.039Z,44.90
2019-01-27T11:48:28.248Z,45.20
2019-01-27T11:51:01.825Z,43.20
2019-01-27T11:53:31.017Z,43.70
2019-01-27T11:56:00.173Z,45.50
2019-01-27T11:58:29.301Z,47.70
2019-01-27T12:01:00.971Z,48.20
2019-01-27T12:03:30.157Z,48.40
2019-01-27T12:05:59.408Z,48.20
2019-01-27T12:08:28.557Z,50.10
2019-01-27T12:10:57.750Z,50.50
2019-01-27T12:13:26.982Z,52.70
2019-01-27T12:15:56.169Z,51.20
2019-01-27T12:18:25.387Z,52.30
2019-01-27T12:20:54.551Z,52.60
2019-01-27T12:23:23.663Z,54.40
2019-01-27T12:25:52.773Z,54.70
2019-01-27T12:28:21.919Z,55.00
2019-01-27T12:30:51.050Z,53.20
2019-01-27T12:33:20.237Z,54.40
2019-01-27T12:35:49.472Z,52.90
2019-01-27T12:38:18.563Z,55.30
2019-01-27T12:40:47.764Z,56.10
2019-01-27T12:43:16.864Z,57.30
2019-01-27T12:45:46.074Z,55.90
2019-01-27T12:48:15.251Z,54.60
2019-01-27T12:50:44.453Z,56.40
2019-01-27T12:53:13.546Z,58.90
2019-01-27T12:55:42.663Z,60.10
2019-01-27T12:58:11.760Z,60.00
2019-01-27T13:00:53.229Z,61.80
2019-01-27T13:03:22.379Z,63.50
2019-01-27T13:05:51.568Z,65.40
2019-01-27T13:08:20.712Z,66.00
2019-01-27T13:10:49.848Z,65.50
2019-01-27T13:13:18.967Z,66.60
2019-01-27T13:15:48.088Z,67.70
2019-01-27T13:18:17.388Z,67.60
2019-01-27T13:20:46.627Z,69.60
2019-01-27T13:23:15.761Z,69.40
2019-01-27T13:25:44.874Z,70.10
2019-01-27T13:28:13.987Z,70.70
2019-01-27T13:30:43.208Z,71.30
2019-01-27T13:33:13.883Z,72.40
2019-01-27T13:35:43.160Z,72.60
2019-01-27T13:38:12.265Z,72.90
2019-01-27T13:40:41.468Z,74.20
2019-01-27T13:43:10.636Z,73.80
2019-01-27T13:45:39.759Z,73.70
2019-01-27T13:48:08.871Z,74.40
2019-01-27T13:50:37.945Z,74.20
2019-01-27T13:53:07.165Z,73.80
2019-01-27T13:55:36.295Z,75.50
2019-01-27T13:58:06.805Z,77.50
2019-01-27T14:00:37.266Z,78.70
2019-01-27T14:03:06.518Z,79.50
2019-01-27T14:05:35.819Z,80.30
2019-01-27T14:08:04.944Z,81.80
2019-01-27T14:10:34.036Z,82.10
2019-01-27T14:13:03.184Z,83.90
2019-01-27T14:15:33.688Z,83.50
2019-01-27T14:18:02.858Z,84.40
2019-01-27T14:20:32.016Z,84.60
2019-01-27T14:23:01.159Z,83.50
2019-01-27T14:25:32.256Z,83.70
2019-01-27T14:28:01.439Z,85.70
2019-01-27T14:30:33.056Z,87.30
2019-01-27T14:33:02.171Z,88.50
2019-01-27T14:35:31.335Z,90.50
2019-01-27T14:38:00.452Z,90.50
2019-01-27T14:40:29.952Z,91.10
2019-01-27T14:43:00.916Z,91.90
2019-01-27T14:45:30.748Z,92.30
2019-01-27T14:48:00.228Z,92.80
2019-01-27T14:50:31.524Z,94.10
2019-01-27T14:53:00.677Z,94.50
2019-01-27T14:55:29.827Z,95.80
2019-01-27T14:57:59.019Z,96.40
2019-01-27T15:00:36.463Z,95.80
2019-01-27T15:03:05.038Z,95.10
2019-01-27T15:05:34.141Z,95.20
2019-01-27T15:08:03.347Z,95.50
2019-01-27T15:10:32.556Z,96.20
2019-01-27T15:13:01.772Z,97.60
2019-01-27T15:15:30.891Z,97.30
2019-01-27T15:18:00.018Z,97.00
2019-01-27T15:20:31.813Z,97.70
2019-01-27T15:23:00.964Z,98.10
2019-01-27T15:25:30.191Z,98.70
2019-01-27T15:27:59.402Z,99.80
2019-01-27T15:30:30.517Z,99.40
2019-01-27T15:32:59.853Z,98.80
2019-01-27T15:35:29.048Z,99.20
2019-01-27T15:37:58.264Z,99.70
2019-01-27T15:40:27.385Z,99.60
2019-01-27T15:42:56.660Z,99.90
2019-01-27T15:45:27.307Z,99.90
2019-01-27T15:47:56.447Z,99.90
2019-01-27T15:50:27.772Z,99.90
2019-01-27T15:52:56.997Z,99.90
2019-01-27T15:55:26.187Z,99.90
2019-01-27T15:57:55.432Z,99.90
2019-01-27T16:00:26.848Z,99.90
2019-01-27T16:02:56.008Z,99.90
2019-01-27T16:05:25.178Z,99.90
2019-01-27T16:07:54.312Z,99.90
2019-01-27T16:10:23.796Z,99.90
2019-01-27T16:12:53.251Z,99.90
2019-01-27T16:15:25.125Z,99.90
2019-01-27T16:17:54.233Z,99.90
2019-01-27T16:20:23.385Z,99.90
2019-01-27T16:23:20.711Z,99.90
2019-01-27T16:25:49.851Z,99.90
2019-01-27T16:28:18.956Z,99.90
2019-01-27T16:31:06.004Z,99.90
2019-01-27T16:33:46.723Z,99.90
2019-01-27T16:36:15.884Z,99.90
2019-01-27T16:38:45.208Z,99.90
2019-01-27T16:41:14.348Z,99.90
2019-01-27T16:43:43.609Z,99.90
2019-01-27T16:46:12.765Z,99.90
2019-01-27T16:48:43.084Z,99.90
2019-01-27T16:51:12.179Z,99.90
2019-01-27T16:53:41.312Z,99.90
2019-01-27T16:56:10.511Z,99.90
2019-01-27T16:58:39.724Z,99.90
2019-01-27T17:01:08.877Z,99.90
2019-01-27T17:03:38.029Z,99.90
2019-01-27T17:06:07.559Z,99.90
2019-01-27T17:08:36.809Z,99.90
2019-01-27T17:11:05.971Z,99.90
2019-01-27T17:13:36.139Z,99.90
2019-01-27T17:16:05.954Z,99.90
2019-01-27T17:18:35.324Z,99.90
2019-01-27T17:21:04.484Z,99.90
2019-01-27T17:23:33.597Z,99.90
2019-01-27T17:26:02.743Z,99.90
2019-01-27T17:28:31.845Z,99.90
2019-01-27T17:31:00.992Z,99.90
2019-01-27T17:33:30.152Z,99.90
2019-01-27T17:35:59.345Z,99.90
2019-01-27T17:38:28.473Z,99.90
2019-01-27T17:41:00.379Z,99.90
2019-01-27T17:43:29.253Z,99.90
2019-01-27T17:45:58.448Z,99.90
2019-01-27T17:48:27.557Z,99.90
2019-01-27T17:50:56.766Z,99.90
2019-01-27T17:53:25.960Z,99.90
2019-01-27T17:55:55.139Z,99.90
2019-01-27T17:58:54.850Z,99.90
2019-01-27T18:01:49.036Z,99.90
2019-01-27T18:04:35.913Z,99.90
2019-01-27T18:07:19.245Z,99.90
2019-01-27T18:10:19.262Z,99.90
2019-01-27T18:12:56.148Z,99.90
2019-01-27T18:15:25.343Z,99.90
2019-01-27T18:17:54.448Z,99.90
2019-01-27T18:20:23.656Z,99.90
2019-01-27T18:22:52.822Z,99.90
2019-01-27T18:25:21.984Z,99.90
2019-01-27T18:27:51.380Z,99.90
2019-01-27T18:30:22.114Z,99.90
2019-01-27T18:32:51.311Z,99.90
2019-01-27T18:35:20.524Z,99.90
2019-01-27T18:37:49.724Z,99.90
2019-01-27T18:40:18.896Z,99.90
2019-01-27T18:42:48.088Z,99.90
2019-01-27T18:45:18.445Z,99.90
2019-01-27T18:47:47.684Z,99.90
2019-01-27T18:50:18.361Z,99.90
2019-01-27T18:52:49.167Z,99.90
2019-01-27T18:55:33.614Z,99.90
2019-01-27T18:58:21.711Z,99.90
2019-01-27T19:01:09.830Z,99.90
2019-01-27T19:04:10.234Z,99.90
2019-01-27T19:07:07.600Z,99.90
2019-01-27T19:09:54.650Z,99.90
2019-01-27T19:12:42.973Z,99.90
2019-01-27T19:15:28.140Z,99.90
2019-01-27T19:21:27.116Z,99.90
2019-01-27T19:24:18.307Z,99.90
2019-01-27T19:27:06.425Z,99.90
2019-01-27T19:29:47.093Z,99.90
2019-01-27T19:32:23.924Z,99.90
2019-01-27T19:35:10.708Z,99.90
2019-01-27T19:37:59.223Z,99.90
2019-01-27T19:40:37.604Z,99.90
2019-01-27T19:43:31.491Z,99.90
2019-01-27T19:46:22.885Z,99.90
2019-01-27T19:48:56.903Z,99.90
2019-01-27T19:51:46.191Z,99.90
2019-01-27T19:54:23.664Z,99.90
2019-01-27T19:57:10.683Z,99.90
2019-01-27T19:59:58.866Z,99.90
2019-01-27T20:02:38.377Z,99.90
2019-01-27T20:05:27.475Z,99.90
2019-01-27T20:08:08.108Z,99.90
2019-01-27T20:10:56.635Z,99.90
2019-01-27T20:13:51.358Z,99.90
2019-01-27T20:16:34.561Z,99.90
2019-01-27T20:19:25.385Z,99.90
2019-01-27T20:22:25.822Z,99.90
2019-01-27T20:25:14.016Z,99.90
2019-01-27T20:28:01.205Z,99.90
2019-01-27T20:30:48.228Z,99.90
2019-01-27T20:33:26.789Z,99.90
2019-01-27T20:36:17.997Z,99.90
2019-01-27T20:39:01.471Z,99.90
2019-01-27T20:42:05.108Z,99.90
2019-01-27T20:44:56.169Z,99.90
2019-01-27T20:47:43.324Z,99.90
2019-01-27T20:50:19.682Z,99.90
2019-01-27T20:53:14.456Z,99.90
2019-01-27T20:56:08.585Z,99.90
2019-01-27T20:58:55.132Z,99.90
2019-01-27T21:01:38.551Z,99.90
2019-01-27T21:04:16.992Z,99.90
2019-01-27T21:07:04.176Z,99.90
2019-01-27T21:09:52.236Z,99.90
2019-01-27T21:12:43.328Z,99.90
2019-01-27T21:15:44.262Z,99.90
2019-01-27T21:18:27.915Z,99.90
2019-01-27T21:20:57.106Z,99.90
2019-01-27T21:23:26.503Z,99.90
2019-01-27T21:25:55.750Z,99.90
2019-01-27T21:28:24.964Z,99.90
2019-01-27T21:30:54.126Z,99.90
2019-01-27T21:33:23.425Z,99.90
2019-01-27T21:35:52.556Z,99.90
2019-01-27T21:38:21.676Z,99.90
2019-01-27T21:40:51.132Z,99.90
2019-01-27T21:43:20.319Z,99.90
2019-01-27T21:45:49.441Z,99.90
2019-01-27T21:48:18.752Z,99.90
2019-01-27T21:50:47.860Z,99.90
2019-01-27T21:53:17.067Z,99.90
2019-01-27T21:55:46.393Z,99.90
2019-01-27T21:58:15.700Z,99.90
2019-01-27T22:00:44.831Z,99.90
2019-01-27T22:03:14.076Z,99.90
2019-01-27T22:05:43.251Z,99.90
2019-01-27T22:08:12.458Z,99.90
2019-01-27T22:10:41.916Z,99.90
2019-01-27T22:13:11.031Z,99.90
2019-01-27T22:15:40.205Z,99.90
2019-01-27T22:18:12.739Z,99.90
2019-01-27T22:20:41.960Z,99.90
2019-01-27T22:23:11.095Z,99.90
2019-01-27T22:25:40.224Z,99.90
2019-01-27T22:28:09.392Z,99.90
2019-01-27T22:30:38.512Z,99.90
2019-01-27T22:33:07.703Z,99.90
2019-01-27T22:35:36.885Z,99.90
2019-01-27T22:38:06.075Z,99.90
2019-01-27T22:40:35.176Z,99.90
2019-01-27T22:43:04.413Z,99.90
2019-01-27T22:45:33.544Z,99.90
2019-01-27T22:48:02.697Z,99.90
2019-01-27T22:50:31.793Z,99.90
2019-01-27T22:53:00.908Z,99.90
2019-01-27T22:55:30.040Z,99.90
2019-01-27T22:57:59.189Z,99.90
2019-01-27T23:00:57.579Z,99.90
2019-01-27T23:03:27.351Z,99.90
2019-01-27T23:05:56.552Z,99.90
2019-01-27T23:08:25.651Z,99.90
2019-01-27T23:10:54.780Z,99.90
2019-01-27T23:13:23.892Z,99.90
2019-01-27T23:15:52.999Z,99.90
2019-01-27T23:18:22.105Z,99.90
2019-01-27T23:20:51.260Z,99.90
2019-01-27T23:23:20.359Z,99.90
2019-01-27T23:25:50.453Z,99.90
2019-01-27T23:28:19.707Z,99.90
2019-01-27T23:30:48.820Z,99.90
2019-01-27T23:33:17.956Z,99.90
2019-01-27T23:35:47.079Z,99.90
2019-01-27T23:38:16.220Z,99.90
2019-01-27T23:40:45.407Z,99.90
2019-01-27T23:43:14.668Z,99.90
2019-01-27T23:45:43.864Z,99.90
2019-01-27T23:48:13.044Z,99.90
2019-01-27T23:50:42.157Z,99.90
2019-01-27T23:53:11.267Z,99.90
2019-01-27T23:55:40.392Z,99.90
2019-01-27T23:58:09.498Z,99.90
